sensor_id;sensor_type;location;lat;lon;timestamp;temperature;humidity
1453;DHT22;720;47.738;7.998;2023-09-30T00:00:18;13.90;99.90
1453;DHT22;720;47.738;7.998;2023-09-30T00:02:44;14.00;99.90
1453;DHT22;720;47.738;7.998;2023-09-30T00:05:09;14.00;99.90
1453;DHT22;720;47.738;7.998;2023-09-30T00:07:35;14.00;99.90
1453;DHT22;720;47.738;7.998;2023-09-30T00:10:01;14.10;99.90
1453;DHT22;720;47.738;7.998;2023-09-30T00:12:28;14.10;99.90
1453;DHT22;720;47.738;7.998;2023-09-30T00:14:54;14.00;99.90
1453;DHT22;720;47.738;7.998;2023-09-30T00:17:20;13.90;99.90
1453;DHT22;720;47.738;7.998;2023-09-30T00:19:46;13.90;99.90
1453;DHT22;720;47.738;7.998;2023-09-30T00:22:12;14.00;99.90
1453;DHT22;720;47.738;7.998;2023-09-30T00:24:37;14.00;99.90
1453;DHT22;720;47.738;7.998;2023-09-30T00:27:03;13.90;99.90
1453;DHT22;720;47.738;7.998;2023-09-30T00:29:29;13.80;99.90
1453;DHT22;720;47.738;7.998;2023-09-30T00:31:54;13.80;99.90
1453;DHT22;720;47.738;7.998;2023-09-30T00:34:20;13.80;99.90
1453;DHT22;720;47.738;7.998;2023-09-30T00:36:46;13.80;99.90
1453;DHT22;720;47.738;7.998;2023-09-30T00:39:12;13.90;99.90
1453;DHT22;720;47.738;7.998;2023-09-30T00:41:39;14.00;99.90
1453;DHT22;720;47.738;7.998;2023-09-30T00:44:05;14.00;99.90
1453;DHT22;720;47.738;7.998;2023-09-30T00:46:32;14.00;99.90
1453;DHT22;720;47.738;7.998;2023-09-30T00:49:00;14.00;99.90
1453;DHT22;720;47.738;7.998;2023-09-30T00:51:26;14.10;99.90
1453;DHT22;720;47.738;7.998;2023-09-30T00:53:53;14.10;99.90
1453;DHT22;720;47.738;7.998;2023-09-30T00:56:21;14.00;99.90
1453;DHT22;720;47.738;7.998;2023-09-30T00:58:48;14.00;99.90
1453;DHT22;720;47.738;7.998;2023-09-30T01:01:17;13.90;99.90
1453;DHT22;720;47.738;7.998;2023-09-30T01:03:44;13.90;99.90
1453;DHT22;720;47.738;7.998;2023-09-30T01:06:10;13.90;99.90
1453;DHT22;720;47.738;7.998;2023-09-30T01:08:36;13.80;99.90
1453;DHT22;720;47.738;7.998;2023-09-30T01:11:02;13.90;99.90
1453;DHT22;720;47.738;7.998;2023-09-30T01:13:34;13.90;99.90
1453;DHT22;720;47.738;7.998;2023-09-30T01:16:08;13.80;99.90
1453;DHT22;720;47.738;7.998;2023-09-30T01:18:37;13.80;99.90
1453;DHT22;720;47.738;7.998;2023-09-30T01:21:04;13.80;99.90
1453;DHT22;720;47.738;7.998;2023-09-30T01:23:34;13.80;99.90
1453;DHT22;720;47.738;7.998;2023-09-30T01:26:09;13.80;99.90
1453;DHT22;720;47.738;7.998;2023-09-30T01:28:35;13.90;99.90
1453;DHT22;720;47.738;7.998;2023-09-30T01:31:01;14.00;99.90
1453;DHT22;720;47.738;7.998;2023-09-30T01:33:27;14.00;99.90
1453;DHT22;720;47.738;7.998;2023-09-30T01:35:53;14.00;99.90
1453;DHT22;720;47.738;7.998;2023-09-30T01:38:19;14.00;99.90
1453;DHT22;720;47.738;7.998;2023-09-30T01:40:45;14.00;99.90
1453;DHT22;720;47.738;7.998;2023-09-30T01:43:12;13.90;99.90
1453;DHT22;720;47.738;7.998;2023-09-30T01:45:42;13.90;99.90
1453;DHT22;720;47.738;7.998;2023-09-30T01:48:08;13.90;99.90
1453;DHT22;720;47.738;7.998;2023-09-30T01:50:37;14.00;99.90
1453;DHT22;720;47.738;7.998;2023-09-30T01:53:04;14.00;99.90
1453;DHT22;720;47.738;7.998;2023-09-30T01:55:32;14.00;99.90
1453;DHT22;720;47.738;7.998;2023-09-30T01:57:58;14.00;99.90
1453;DHT22;720;47.738;7.998;2023-09-30T02:00:23;14.10;99.90
1453;DHT22;720;47.738;7.998;2023-09-30T02:02:49;14.10;99.90
1453;DHT22;720;47.738;7.998;2023-09-30T02:05:15;14.20;99.90
1453;DHT22;720;47.738;7.998;2023-09-30T02:07:40;14.10;99.90
1453;DHT22;720;47.738;7.998;2023-09-30T02:10:07;14.10;99.90
1453;DHT22;720;47.738;7.998;2023-09-30T02:12:33;14.00;99.90
1453;DHT22;720;47.738;7.998;2023-09-30T02:14:58;14.10;99.90
1453;DHT22;720;47.738;7.998;2023-09-30T02:17:24;14.20;99.90
1453;DHT22;720;47.738;7.998;2023-09-30T02:19:50;14.30;99.90
1453;DHT22;720;47.738;7.998;2023-09-30T02:22:15;14.30;99.90
1453;DHT22;720;47.738;7.998;2023-09-30T02:24:41;14.30;99.90
1453;DHT22;720;47.738;7.998;2023-09-30T02:27:07;14.20;99.90
1453;DHT22;720;47.738;7.998;2023-09-30T02:29:33;14.20;99.90
1453;DHT22;720;47.738;7.998;2023-09-30T02:31:59;14.10;99.90
1453;DHT22;720;47.738;7.998;2023-09-30T02:34:24;14.10;99.90
1453;DHT22;720;47.738;7.998;2023-09-30T02:36:50;14.00;99.90
1453;DHT22;720;47.738;7.998;2023-09-30T02:39:17;14.00;99.90
1453;DHT22;720;47.738;7.998;2023-09-30T02:41:43;14.00;99.90
1453;DHT22;720;47.738;7.998;2023-09-30T02:44:09;14.20;99.90
1453;DHT22;720;47.738;7.998;2023-09-30T02:46:34;14.30;99.90
1453;DHT22;720;47.738;7.998;2023-09-30T02:49:03;14.40;99.90
1453;DHT22;720;47.738;7.998;2023-09-30T02:51:29;14.40;99.90
1453;DHT22;720;47.738;7.998;2023-09-30T02:53:55;14.40;99.90
1453;DHT22;720;47.738;7.998;2023-09-30T02:56:21;14.40;99.90
1453;DHT22;720;47.738;7.998;2023-09-30T02:58:50;14.40;99.90
1453;DHT22;720;47.738;7.998;2023-09-30T03:01:17;14.50;99.90
1453;DHT22;720;47.738;7.998;2023-09-30T03:03:43;14.50;99.90
1453;DHT22;720;47.738;7.998;2023-09-30T03:06:11;14.60;99.90
1453;DHT22;720;47.738;7.998;2023-09-30T03:08:37;14.60;99.90
1453;DHT22;720;47.738;7.998;2023-09-30T03:11:03;14.60;99.90
1453;DHT22;720;47.738;7.998;2023-09-30T03:13:30;14.50;99.90
1453;DHT22;720;47.738;7.998;2023-09-30T03:15:56;14.40;99.90
1453;DHT22;720;47.738;7.998;2023-09-30T03:18:22;14.20;99.90
1453;DHT22;720;47.738;7.998;2023-09-30T03:20:58;14.20;99.90
1453;DHT22;720;47.738;7.998;2023-09-30T03:23:26;14.20;99.90
1453;DHT22;720;47.738;7.998;2023-09-30T03:25:57;14.20;99.90
1453;DHT22;720;47.738;7.998;2023-09-30T03:28:23;14.30;99.90
1453;DHT22;720;47.738;7.998;2023-09-30T03:30:48;14.40;99.90
1453;DHT22;720;47.738;7.998;2023-09-30T03:33:14;14.50;99.90
1453;DHT22;720;47.738;7.998;2023-09-30T03:35:39;14.40;99.90
1453;DHT22;720;47.738;7.998;2023-09-30T03:38:07;14.50;99.90
1453;DHT22;720;47.738;7.998;2023-09-30T03:40:35;14.60;99.90
1453;DHT22;720;47.738;7.998;2023-09-30T03:43:04;14.70;99.90
1453;DHT22;720;47.738;7.998;2023-09-30T03:45:32;14.60;99.90
1453;DHT22;720;47.738;7.998;2023-09-30T03:47:58;14.60;99.90
1453;DHT22;720;47.738;7.998;2023-09-30T03:50:24;14.70;99.90
1453;DHT22;720;47.738;7.998;2023-09-30T03:52:50;14.70;99.90
1453;DHT22;720;47.738;7.998;2023-09-30T03:55:16;14.70;99.90
1453;DHT22;720;47.738;7.998;2023-09-30T03:57:43;14.80;99.90
1453;DHT22;720;47.738;7.998;2023-09-30T04:00:13;14.80;99.90
1453;DHT22;720;47.738;7.998;2023-09-30T04:02:42;14.70;99.90
1453;DHT22;720;47.738;7.998;2023-09-30T04:05:09;14.60;99.90
1453;DHT22;720;47.738;7.998;2023-09-30T04:07:39;14.60;99.90
1453;DHT22;720;47.738;7.998;2023-09-30T04:10:06;14.70;99.90
1453;DHT22;720;47.738;7.998;2023-09-30T04:12:32;14.70;99.90
1453;DHT22;720;47.738;7.998;2023-09-30T04:14:58;14.70;99.90
1453;DHT22;720;47.738;7.998;2023-09-30T04:17:24;14.60;99.90
1453;DHT22;720;47.738;7.998;2023-09-30T04:19:49;14.50;99.90
1453;DHT22;720;47.738;7.998;2023-09-30T04:22:18;14.50;99.90
1453;DHT22;720;47.738;7.998;2023-09-30T04:24:45;14.40;99.90
1453;DHT22;720;47.738;7.998;2023-09-30T04:27:11;14.30;99.90
1453;DHT22;720;47.738;7.998;2023-09-30T04:29:36;14.30;99.90
1453;DHT22;720;47.738;7.998;2023-09-30T04:32:03;14.30;99.90
1453;DHT22;720;47.738;7.998;2023-09-30T04:34:30;14.30;99.90
1453;DHT22;720;47.738;7.998;2023-09-30T04:36:56;14.40;99.90
1453;DHT22;720;47.738;7.998;2023-09-30T04:39:21;14.50;99.90
1453;DHT22;720;47.738;7.998;2023-09-30T04:41:48;14.60;99.90
1453;DHT22;720;47.738;7.998;2023-09-30T04:44:14;14.60;99.90
1453;DHT22;720;47.738;7.998;2023-09-30T04:46:39;14.70;99.90
1453;DHT22;720;47.738;7.998;2023-09-30T04:49:09;14.60;99.90
1453;DHT22;720;47.738;7.998;2023-09-30T04:51:35;14.50;99.90
1453;DHT22;720;47.738;7.998;2023-09-30T04:54:01;14.50;99.90
1453;DHT22;720;47.738;7.998;2023-09-30T04:56:27;14.40;99.90
1453;DHT22;720;47.738;7.998;2023-09-30T04:58:53;14.40;99.90
1453;DHT22;720;47.738;7.998;2023-09-30T05:01:19;14.50;99.90
1453;DHT22;720;47.738;7.998;2023-09-30T05:03:45;14.50;99.90
1453;DHT22;720;47.738;7.998;2023-09-30T05:06:14;14.50;99.90
1453;DHT22;720;47.738;7.998;2023-09-30T05:08:39;14.50;99.90
1453;DHT22;720;47.738;7.998;2023-09-30T05:11:05;14.50;99.90
1453;DHT22;720;47.738;7.998;2023-09-30T05:13:30;14.60;99.90
1453;DHT22;720;47.738;7.998;2023-09-30T05:15:56;14.70;99.90
1453;DHT22;720;47.738;7.998;2023-09-30T05:18:22;14.70;99.90
1453;DHT22;720;47.738;7.998;2023-09-30T05:20:49;14.80;99.90
1453;DHT22;720;47.738;7.998;2023-09-30T05:23:15;14.80;99.90
1453;DHT22;720;47.738;7.998;2023-09-30T05:25:40;14.80;99.90
1453;DHT22;720;47.738;7.998;2023-09-30T05:28:06;14.70;99.90
1453;DHT22;720;47.738;7.998;2023-09-30T05:30:33;14.70;99.90
1453;DHT22;720;47.738;7.998;2023-09-30T05:33:00;14.70;99.90
1453;DHT22;720;47.738;7.998;2023-09-30T05:35:26;14.80;99.90
1453;DHT22;720;47.738;7.998;2023-09-30T05:37:52;14.80;99.90
1453;DHT22;720;47.738;7.998;2023-09-30T05:40:21;14.80;99.90
1453;DHT22;720;47.738;7.998;2023-09-30T05:42:48;14.70;99.90
1453;DHT22;720;47.738;7.998;2023-09-30T05:45:16;14.60;99.90
1453;DHT22;720;47.738;7.998;2023-09-30T05:47:42;14.70;99.90
1453;DHT22;720;47.738;7.998;2023-09-30T05:50:09;14.70;99.90
1453;DHT22;720;47.738;7.998;2023-09-30T05:52:40;14.80;99.90
1453;DHT22;720;47.738;7.998;2023-09-30T05:55:06;15.00;99.90
1453;DHT22;720;47.738;7.998;2023-09-30T05:57:32;15.00;99.90
1453;DHT22;720;47.738;7.998;2023-09-30T05:59:58;15.10;99.90
1453;DHT22;720;47.738;7.998;2023-09-30T06:02:23;15.00;99.90
1453;DHT22;720;47.738;7.998;2023-09-30T06:04:50;14.80;99.90
1453;DHT22;720;47.738;7.998;2023-09-30T06:07:18;14.80;99.90
1453;DHT22;720;47.738;7.998;2023-09-30T06:09:45;14.70;99.90
1453;DHT22;720;47.738;7.998;2023-09-30T06:12:13;14.80;99.90
1453;DHT22;720;47.738;7.998;2023-09-30T06:14:39;15.00;99.90
1453;DHT22;720;47.738;7.998;2023-09-30T06:17:07;15.20;99.90
1453;DHT22;720;47.738;7.998;2023-09-30T06:19:32;15.10;99.90
1453;DHT22;720;47.738;7.998;2023-09-30T06:21:58;15.10;99.90
1453;DHT22;720;47.738;7.998;2023-09-30T06:24:24;15.10;99.90
1453;DHT22;720;47.738;7.998;2023-09-30T06:26:49;15.20;99.90
1453;DHT22;720;47.738;7.998;2023-09-30T06:29:15;15.40;99.90
1453;DHT22;720;47.738;7.998;2023-09-30T06:31:41;15.50;99.90
1453;DHT22;720;47.738;7.998;2023-09-30T06:34:06;15.70;99.90
1453;DHT22;720;47.738;7.998;2023-09-30T06:36:32;15.80;99.90
1453;DHT22;720;47.738;7.998;2023-09-30T06:38:58;16.00;99.90
1453;DHT22;720;47.738;7.998;2023-09-30T06:41:24;16.20;99.90
1453;DHT22;720;47.738;7.998;2023-09-30T06:43:51;16.30;99.90
1453;DHT22;720;47.738;7.998;2023-09-30T06:46:17;16.40;99.90
1453;DHT22;720;47.738;7.998;2023-09-30T06:48:43;16.50;99.90
1453;DHT22;720;47.738;7.998;2023-09-30T06:51:13;16.50;99.90
1453;DHT22;720;47.738;7.998;2023-09-30T06:53:40;16.50;99.90
1453;DHT22;720;47.738;7.998;2023-09-30T06:56:06;16.60;99.90
1453;DHT22;720;47.738;7.998;2023-09-30T06:58:32;16.60;99.90
1453;DHT22;720;47.738;7.998;2023-09-30T07:00:57;16.70;99.90
1453;DHT22;720;47.738;7.998;2023-09-30T07:03:23;16.90;99.90
1453;DHT22;720;47.738;7.998;2023-09-30T07:05:48;17.10;99.90
1453;DHT22;720;47.738;7.998;2023-09-30T07:08:19;17.20;99.90
1453;DHT22;720;47.738;7.998;2023-09-30T07:10:46;17.20;99.90
1453;DHT22;720;47.738;7.998;2023-09-30T07:13:16;17.20;99.90
1453;DHT22;720;47.738;7.998;2023-09-30T07:15:41;17.40;99.90
1453;DHT22;720;47.738;7.998;2023-09-30T07:18:08;17.60;99.80
1453;DHT22;720;47.738;7.998;2023-09-30T07:20:33;17.80;99.00
1453;DHT22;720;47.738;7.998;2023-09-30T07:23:00;18.00;98.70
1453;DHT22;720;47.738;7.998;2023-09-30T07:25:27;18.10;98.80
1453;DHT22;720;47.738;7.998;2023-09-30T07:27:53;18.30;98.60
1453;DHT22;720;47.738;7.998;2023-09-30T07:30:18;18.50;98.60
1453;DHT22;720;47.738;7.998;2023-09-30T07:32:44;18.60;98.40
1453;DHT22;720;47.738;7.998;2023-09-30T07:35:11;18.80;98.10
1453;DHT22;720;47.738;7.998;2023-09-30T07:37:37;19.00;97.50
1453;DHT22;720;47.738;7.998;2023-09-30T07:40:04;19.20;97.20
1453;DHT22;720;47.738;7.998;2023-09-30T07:42:30;19.40;96.70
1453;DHT22;720;47.738;7.998;2023-09-30T07:44:56;19.70;95.80
1453;DHT22;720;47.738;7.998;2023-09-30T07:47:21;19.90;95.40
1453;DHT22;720;47.738;7.998;2023-09-30T07:49:47;20.20;94.40
1453;DHT22;720;47.738;7.998;2023-09-30T07:52:13;20.20;93.60
1453;DHT22;720;47.738;7.998;2023-09-30T07:54:38;20.40;93.70
1453;DHT22;720;47.738;7.998;2023-09-30T07:57:04;20.80;93.70
1453;DHT22;720;47.738;7.998;2023-09-30T07:59:30;21.00;92.90
1453;DHT22;720;47.738;7.998;2023-09-30T08:01:55;21.20;92.50
1453;DHT22;720;47.738;7.998;2023-09-30T08:04:22;21.50;92.20
1453;DHT22;720;47.738;7.998;2023-09-30T08:06:49;21.70;92.00
1453;DHT22;720;47.738;7.998;2023-09-30T08:09:15;21.80;92.00
1453;DHT22;720;47.738;7.998;2023-09-30T08:11:41;21.80;89.70
1453;DHT22;720;47.738;7.998;2023-09-30T08:14:06;21.80;90.00
1453;DHT22;720;47.738;7.998;2023-09-30T08:16:34;21.90;88.30
1453;DHT22;720;47.738;7.998;2023-09-30T08:19:00;21.90;88.60
1453;DHT22;720;47.738;7.998;2023-09-30T08:21:26;21.80;89.10
1453;DHT22;720;47.738;7.998;2023-09-30T08:23:51;21.60;88.80
1453;DHT22;720;47.738;7.998;2023-09-30T08:26:17;21.80;89.60
1453;DHT22;720;47.738;7.998;2023-09-30T08:28:43;22.50;88.50
1453;DHT22;720;47.738;7.998;2023-09-30T08:31:08;23.10;85.50
1453;DHT22;720;47.738;7.998;2023-09-30T08:33:34;23.40;84.10
1453;DHT22;720;47.738;7.998;2023-09-30T08:36:05;23.50;82.80
1453;DHT22;720;47.738;7.998;2023-09-30T08:38:35;23.70;82.70
1453;DHT22;720;47.738;7.998;2023-09-30T08:41:01;23.80;82.70
1453;DHT22;720;47.738;7.998;2023-09-30T08:43:28;23.80;81.00
1453;DHT22;720;47.738;7.998;2023-09-30T08:45:56;23.60;81.50
1453;DHT22;720;47.738;7.998;2023-09-30T08:48:23;23.40;81.10
1453;DHT22;720;47.738;7.998;2023-09-30T08:50:53;23.40;81.90
1453;DHT22;720;47.738;7.998;2023-09-30T08:53:20;23.70;81.90
1453;DHT22;720;47.738;7.998;2023-09-30T08:55:46;23.90;79.10
1453;DHT22;720;47.738;7.998;2023-09-30T08:58:13;23.80;78.20
1453;DHT22;720;47.738;7.998;2023-09-30T09:00:39;24.60;77.60
1453;DHT22;720;47.738;7.998;2023-09-30T09:03:08;25.40;73.30
1453;DHT22;720;47.738;7.998;2023-09-30T09:05:34;25.80;69.90
1453;DHT22;720;47.738;7.998;2023-09-30T09:07:59;25.90;70.50
1453;DHT22;720;47.738;7.998;2023-09-30T09:10:25;25.80;69.60
1453;DHT22;720;47.738;7.998;2023-09-30T09:12:58;25.50;69.70
1453;DHT22;720;47.738;7.998;2023-09-30T09:15:26;25.00;70.20
1453;DHT22;720;47.738;7.998;2023-09-30T09:17:51;24.30;70.70
1453;DHT22;720;47.738;7.998;2023-09-30T09:20:25;23.70;73.20
1453;DHT22;720;47.738;7.998;2023-09-30T09:22:55;23.00;76.60
1453;DHT22;720;47.738;7.998;2023-09-30T09:25:21;22.00;78.40
1453;DHT22;720;47.738;7.998;2023-09-30T09:27:51;22.10;79.10
1453;DHT22;720;47.738;7.998;2023-09-30T09:33:04;21.40;83.70
1453;DHT22;720;47.738;7.998;2023-09-30T09:35:31;21.10;84.80
1453;DHT22;720;47.738;7.998;2023-09-30T09:38:03;20.70;87.00
1453;DHT22;720;47.738;7.998;2023-09-30T09:40:37;20.50;87.90
1453;DHT22;720;47.738;7.998;2023-09-30T09:43:06;20.60;88.10
1453;DHT22;720;47.738;7.998;2023-09-30T09:45:36;20.80;87.30
1453;DHT22;720;47.738;7.998;2023-09-30T09:48:04;21.10;86.90
1453;DHT22;720;47.738;7.998;2023-09-30T09:50:30;21.80;84.50
1453;DHT22;720;47.738;7.998;2023-09-30T09:52:58;22.80;84.10
1453;DHT22;720;47.738;7.998;2023-09-30T09:55:26;23.40;78.80
1453;DHT22;720;47.738;7.998;2023-09-30T09:57:53;23.40;78.00
1453;DHT22;720;47.738;7.998;2023-09-30T10:00:22;23.30;77.10
1453;DHT22;720;47.738;7.998;2023-09-30T10:02:50;23.00;76.90
1453;DHT22;720;47.738;7.998;2023-09-30T10:05:16;22.60;78.30
1453;DHT22;720;47.738;7.998;2023-09-30T10:08:04;22.70;79.30
1453;DHT22;720;47.738;7.998;2023-09-30T10:10:35;23.10;79.50
1453;DHT22;720;47.738;7.998;2023-09-30T10:13:01;23.30;78.40
1453;DHT22;720;47.738;7.998;2023-09-30T10:20:36;23.20;79.70
1453;DHT22;720;47.738;7.998;2023-09-30T10:25:48;23.30;79.50
1453;DHT22;720;47.738;7.998;2023-09-30T10:31:20;22.80;81.90
1453;DHT22;720;47.738;7.998;2023-09-30T10:36:34;24.40;79.00
1453;DHT22;720;47.738;7.998;2023-09-30T10:39:01;24.70;74.60
1453;DHT22;720;47.738;7.998;2023-09-30T10:46:56;23.70;75.00
1453;DHT22;720;47.738;7.998;2023-09-30T10:51:52;23.70;75.90
1453;DHT22;720;47.738;7.998;2023-09-30T10:54:25;24.10;74.20
1453;DHT22;720;47.738;7.998;2023-09-30T10:56:52;24.20;70.60
1453;DHT22;720;47.738;7.998;2023-09-30T10:59:22;24.30;72.00
1453;DHT22;720;47.738;7.998;2023-09-30T11:01:49;24.00;73.80
1453;DHT22;720;47.738;7.998;2023-09-30T11:04:15;23.90;74.10
1453;DHT22;720;47.738;7.998;2023-09-30T11:06:42;24.10;73.80
1453;DHT22;720;47.738;7.998;2023-09-30T11:09:08;24.20;74.40
1453;DHT22;720;47.738;7.998;2023-09-30T11:11:44;24.00;78.10
1453;DHT22;720;47.738;7.998;2023-09-30T11:14:27;24.30;76.90
1453;DHT22;720;47.738;7.998;2023-09-30T11:16:55;24.00;74.10
1453;DHT22;720;47.738;7.998;2023-09-30T11:19:22;23.80;76.00
1453;DHT22;720;47.738;7.998;2023-09-30T11:21:49;23.80;77.60
1453;DHT22;720;47.738;7.998;2023-09-30T11:24:16;23.60;76.70
1453;DHT22;720;47.738;7.998;2023-09-30T11:26:42;23.30;76.30
1453;DHT22;720;47.738;7.998;2023-09-30T11:29:16;23.00;76.50
1453;DHT22;720;47.738;7.998;2023-09-30T11:31:46;22.90;78.10
1453;DHT22;720;47.738;7.998;2023-09-30T11:34:14;23.20;79.20
1453;DHT22;720;47.738;7.998;2023-09-30T11:37:14;23.60;78.50
1453;DHT22;720;47.738;7.998;2023-09-30T11:39:35;23.70;75.80
1453;DHT22;720;47.738;7.998;2023-09-30T11:42:01;23.90;76.30
1453;DHT22;720;47.738;7.998;2023-09-30T11:44:26;24.10;74.60
1453;DHT22;720;47.738;7.998;2023-09-30T11:46:55;24.00;77.20
1453;DHT22;720;47.738;7.998;2023-09-30T11:49:34;23.90;75.70
1453;DHT22;720;47.738;7.998;2023-09-30T11:52:07;23.30;78.20
1453;DHT22;720;47.738;7.998;2023-09-30T11:54:38;23.20;75.60
1453;DHT22;720;47.738;7.998;2023-09-30T11:57:07;23.00;74.70
1453;DHT22;720;47.738;7.998;2023-09-30T11:59:35;22.90;73.20
1453;DHT22;720;47.738;7.998;2023-09-30T12:02:08;22.80;74.50
1453;DHT22;720;47.738;7.998;2023-09-30T12:04:35;22.70;75.60
1453;DHT22;720;47.738;7.998;2023-09-30T12:07:01;22.70;76.30
1453;DHT22;720;47.738;7.998;2023-09-30T12:09:27;22.60;77.20
1453;DHT22;720;47.738;7.998;2023-09-30T12:11:54;22.40;75.90
1453;DHT22;720;47.738;7.998;2023-09-30T12:14:21;22.30;75.40
1453;DHT22;720;47.738;7.998;2023-09-30T12:16:47;22.30;78.00
1453;DHT22;720;47.738;7.998;2023-09-30T12:19:16;22.40;78.00
1453;DHT22;720;47.738;7.998;2023-09-30T12:21:43;22.50;77.10
1453;DHT22;720;47.738;7.998;2023-09-30T12:24:12;22.70;77.10
1453;DHT22;720;47.738;7.998;2023-09-30T12:26:51;22.80;76.30
1453;DHT22;720;47.738;7.998;2023-09-30T12:29:20;22.90;76.60
1453;DHT22;720;47.738;7.998;2023-09-30T12:31:51;22.60;75.20
1453;DHT22;720;47.738;7.998;2023-09-30T12:34:17;22.60;76.90
1453;DHT22;720;47.738;7.998;2023-09-30T12:36:44;22.50;74.60
1453;DHT22;720;47.738;7.998;2023-09-30T12:39:10;22.80;75.10
1453;DHT22;720;47.738;7.998;2023-09-30T12:41:43;22.80;75.20
1453;DHT22;720;47.738;7.998;2023-09-30T12:44:10;23.00;75.80
1453;DHT22;720;47.738;7.998;2023-09-30T12:46:37;23.20;79.00
1453;DHT22;720;47.738;7.998;2023-09-30T12:49:05;23.20;74.80
1453;DHT22;720;47.738;7.998;2023-09-30T12:51:31;23.20;73.60
1453;DHT22;720;47.738;7.998;2023-09-30T12:53:57;23.20;72.40
1453;DHT22;720;47.738;7.998;2023-09-30T12:56:23;23.10;74.10
1453;DHT22;720;47.738;7.998;2023-09-30T12:58:49;22.90;72.30
1453;DHT22;720;47.738;7.998;2023-09-30T13:01:15;22.70;73.00
1453;DHT22;720;47.738;7.998;2023-09-30T13:03:46;22.40;73.60
1453;DHT22;720;47.738;7.998;2023-09-30T13:06:11;22.30;76.10
1453;DHT22;720;47.738;7.998;2023-09-30T13:08:37;22.20;74.50
1453;DHT22;720;47.738;7.998;2023-09-30T13:11:04;22.10;77.60
1453;DHT22;720;47.738;7.998;2023-09-30T13:13:31;21.50;74.90
1453;DHT22;720;47.738;7.998;2023-09-30T13:15:59;21.30;76.40
1453;DHT22;720;47.738;7.998;2023-09-30T13:18:24;21.20;78.20
1453;DHT22;720;47.738;7.998;2023-09-30T13:20:50;21.30;79.10
1453;DHT22;720;47.738;7.998;2023-09-30T13:23:17;21.30;78.40
1453;DHT22;720;47.738;7.998;2023-09-30T13:25:44;21.40;77.50
1453;DHT22;720;47.738;7.998;2023-09-30T13:28:10;21.40;78.50
1453;DHT22;720;47.738;7.998;2023-09-30T13:30:36;21.60;77.00
1453;DHT22;720;47.738;7.998;2023-09-30T13:33:02;21.80;81.60
1453;DHT22;720;47.738;7.998;2023-09-30T13:35:29;21.90;78.60
1453;DHT22;720;47.738;7.998;2023-09-30T13:37:54;22.10;80.90
1453;DHT22;720;47.738;7.998;2023-09-30T13:40:20;22.20;75.20
1453;DHT22;720;47.738;7.998;2023-09-30T13:42:48;22.20;75.30
1453;DHT22;720;47.738;7.998;2023-09-30T13:45:14;22.40;73.50
1453;DHT22;720;47.738;7.998;2023-09-30T13:47:42;22.50;74.90
1453;DHT22;720;47.738;7.998;2023-09-30T13:50:08;22.50;75.00
1453;DHT22;720;47.738;7.998;2023-09-30T13:52:35;22.30;76.10
1453;DHT22;720;47.738;7.998;2023-09-30T13:55:00;22.00;77.00
1453;DHT22;720;47.738;7.998;2023-09-30T13:57:26;21.90;76.90
1453;DHT22;720;47.738;7.998;2023-09-30T13:59:52;21.90;76.40
1453;DHT22;720;47.738;7.998;2023-09-30T14:02:17;22.00;76.20
1453;DHT22;720;47.738;7.998;2023-09-30T14:04:43;22.10;78.30
1453;DHT22;720;47.738;7.998;2023-09-30T14:07:09;22.00;79.60
1453;DHT22;720;47.738;7.998;2023-09-30T14:09:35;21.80;75.90
1453;DHT22;720;47.738;7.998;2023-09-30T14:12:01;21.90;76.50
1453;DHT22;720;47.738;7.998;2023-09-30T14:14:26;21.90;76.90
1453;DHT22;720;47.738;7.998;2023-09-30T14:16:52;21.90;75.50
1453;DHT22;720;47.738;7.998;2023-09-30T14:19:18;21.90;76.80
1453;DHT22;720;47.738;7.998;2023-09-30T14:21:43;21.90;75.80
1453;DHT22;720;47.738;7.998;2023-09-30T14:24:09;21.70;75.80
1453;DHT22;720;47.738;7.998;2023-09-30T14:26:35;21.70;75.90
1453;DHT22;720;47.738;7.998;2023-09-30T14:29:01;21.60;76.90
1453;DHT22;720;47.738;7.998;2023-09-30T14:31:27;21.60;79.30
1453;DHT22;720;47.738;7.998;2023-09-30T14:33:52;21.60;80.90
1453;DHT22;720;47.738;7.998;2023-09-30T14:36:18;21.50;80.40
1453;DHT22;720;47.738;7.998;2023-09-30T14:38:47;21.40;81.60
1453;DHT22;720;47.738;7.998;2023-09-30T14:41:13;21.30;86.10
1453;DHT22;720;47.738;7.998;2023-09-30T14:43:39;21.10;88.40
1453;DHT22;720;47.738;7.998;2023-09-30T14:46:05;20.80;90.00
1453;DHT22;720;47.738;7.998;2023-09-30T14:48:31;20.50;90.90
1453;DHT22;720;47.738;7.998;2023-09-30T14:50:57;20.30;91.70
1453;DHT22;720;47.738;7.998;2023-09-30T14:53:23;20.10;92.10
1453;DHT22;720;47.738;7.998;2023-09-30T14:55:50;20.00;92.70
1453;DHT22;720;47.738;7.998;2023-09-30T14:58:16;19.80;93.10
1453;DHT22;720;47.738;7.998;2023-09-30T15:00:42;19.60;93.90
1453;DHT22;720;47.738;7.998;2023-09-30T15:03:07;19.60;94.10
1453;DHT22;720;47.738;7.998;2023-09-30T15:05:33;19.50;94.10
1453;DHT22;720;47.738;7.998;2023-09-30T15:08:00;19.30;94.60
1453;DHT22;720;47.738;7.998;2023-09-30T15:10:29;19.20;95.00
1453;DHT22;720;47.738;7.998;2023-09-30T15:12:55;19.10;95.30
1453;DHT22;720;47.738;7.998;2023-09-30T15:15:20;19.00;95.80
1453;DHT22;720;47.738;7.998;2023-09-30T15:17:46;18.80;96.10
1453;DHT22;720;47.738;7.998;2023-09-30T15:20:12;18.70;96.40
1453;DHT22;720;47.738;7.998;2023-09-30T15:22:38;18.60;96.90
1453;DHT22;720;47.738;7.998;2023-09-30T15:25:04;18.40;96.80
1453;DHT22;720;47.738;7.998;2023-09-30T15:27:30;18.30;97.80
1453;DHT22;720;47.738;7.998;2023-09-30T15:29:58;18.10;97.90
1453;DHT22;720;47.738;7.998;2023-09-30T15:32:24;18.00;98.40
1453;DHT22;720;47.738;7.998;2023-09-30T15:34:50;17.90;98.80
1453;DHT22;720;47.738;7.998;2023-09-30T15:37:15;17.90;99.20
1453;DHT22;720;47.738;7.998;2023-09-30T15:39:42;17.80;99.40
1453;DHT22;720;47.738;7.998;2023-09-30T15:42:08;17.80;99.40
1453;DHT22;720;47.738;7.998;2023-09-30T15:44:40;17.70;99.40
1453;DHT22;720;47.738;7.998;2023-09-30T15:47:07;17.60;99.70
1453;DHT22;720;47.738;7.998;2023-09-30T15:49:34;17.60;99.80
1453;DHT22;720;47.738;7.998;2023-09-30T15:52:00;17.60;99.80
1453;DHT22;720;47.738;7.998;2023-09-30T15:54:26;17.60;99.80
1453;DHT22;720;47.738;7.998;2023-09-30T15:56:51;17.60;99.70
1453;DHT22;720;47.738;7.998;2023-09-30T15:59:17;17.60;99.60
1453;DHT22;720;47.738;7.998;2023-09-30T16:01:43;17.60;99.50
1453;DHT22;720;47.738;7.998;2023-09-30T16:04:09;17.50;99.50
1453;DHT22;720;47.738;7.998;2023-09-30T16:06:35;17.40;99.90
1453;DHT22;720;47.738;7.998;2023-09-30T16:09:01;17.20;99.90
1453;DHT22;720;47.738;7.998;2023-09-30T16:11:26;17.00;99.90
1453;DHT22;720;47.738;7.998;2023-09-30T16:13:53;16.90;99.90
1453;DHT22;720;47.738;7.998;2023-09-30T16:16:19;16.90;99.90
1453;DHT22;720;47.738;7.998;2023-09-30T16:18:44;16.80;99.90
1453;DHT22;720;47.738;7.998;2023-09-30T16:21:10;16.90;99.90
1453;DHT22;720;47.738;7.998;2023-09-30T16:23:36;16.90;99.90
1453;DHT22;720;47.738;7.998;2023-09-30T16:26:02;16.90;99.90
1453;DHT22;720;47.738;7.998;2023-09-30T16:28:27;16.80;99.90
1453;DHT22;720;47.738;7.998;2023-09-30T16:30:54;16.80;99.90
1453;DHT22;720;47.738;7.998;2023-09-30T16:33:20;16.70;99.90
1453;DHT22;720;47.738;7.998;2023-09-30T16:35:51;16.60;99.90
1453;DHT22;720;47.738;7.998;2023-09-30T16:38:18;16.40;99.90